createdAt,value
2019-04-30T00:00:38.321Z,7.92
2019-04-30T00:03:15.956Z,15.58
2019-04-30T00:05:49.270Z,13.58
2019-04-30T00:08:16.327Z,13.58
2019-04-30T00:10:45.414Z,11.83
2019-04-30T00:13:17.527Z,13.30
2019-04-30T00:15:45.286Z,12.63
2019-04-30T00:18:18.402Z,12.47
2019-04-30T00:20:49.257Z,11.90
2019-04-30T00:23:22.397Z,12.13
2019-04-30T00:25:48.413Z,12.90
2019-04-30T00:28:17.098Z,13.18
2019-04-30T00:30:48.343Z,13.50
2019-04-30T00:33:22.156Z,12.60
2019-04-30T00:35:49.745Z,12.28
2019-04-30T00:38:17.851Z,17.00
2019-04-30T00:40:46.614Z,15.32
2019-04-30T00:43:15.610Z,12.45
2019-04-30T00:45:47.380Z,13.72
2019-04-30T00:48:19.329Z,11.63
2019-04-30T00:50:45.987Z,15.40
2019-04-30T00:53:16.500Z,13.18
2019-04-30T00:55:48.387Z,13.93
2019-04-30T00:58:17.507Z,13.53
2019-04-30T01:00:50.036Z,12.35
2019-04-30T01:03:20.086Z,13.13
2019-04-30T01:05:49.794Z,12.03
2019-04-30T01:08:21.070Z,12.37
2019-04-30T01:10:48.903Z,12.33
2019-04-30T01:13:19.203Z,12.37
2019-04-30T01:15:52.251Z,12.43
2019-04-30T01:18:19.338Z,11.78
2019-04-30T01:20:48.765Z,11.35
2019-04-30T01:23:22.093Z,11.22
2019-04-30T01:25:51.472Z,13.90
2019-04-30T01:28:24.132Z,15.18
2019-04-30T01:30:57.949Z,13.03
2019-04-30T01:33:28.469Z,16.37
2019-04-30T01:35:59.542Z,16.10
2019-04-30T01:38:28.677Z,13.85
2019-04-30T01:40:59.622Z,13.10
2019-04-30T01:43:33.526Z,13.95
2019-04-30T01:46:01.803Z,13.58
2019-04-30T01:48:29.926Z,10.43
2019-04-30T01:51:01.071Z,10.25
2019-04-30T01:53:29.173Z,10.98
2019-04-30T01:56:19.184Z,11.90
2019-04-30T01:58:55.671Z,13.38
2019-04-30T02:01:31.115Z,16.55
2019-04-30T02:03:59.511Z,14.85
2019-04-30T02:06:30.483Z,15.23
2019-04-30T02:09:00.956Z,14.20
2019-04-30T02:11:30.419Z,13.30
2019-04-30T02:13:59.246Z,14.85
2019-04-30T02:16:28.957Z,13.25
2019-04-30T02:18:59.653Z,14.23
2019-04-30T02:21:30.056Z,13.45
2019-04-30T02:24:00.072Z,13.05
2019-04-30T02:26:28.775Z,11.65
2019-04-30T02:28:59.317Z,12.78
2019-04-30T02:31:30.776Z,13.15
2019-04-30T02:34:05.898Z,13.10
2019-04-30T02:36:45.390Z,13.60
2019-04-30T02:39:14.051Z,14.78
2019-04-30T02:41:45.570Z,15.18
2019-04-30T02:44:15.521Z,13.93
2019-04-30T02:46:46.133Z,14.73
2019-04-30T02:49:20.166Z,13.72
2019-04-30T02:51:49.978Z,9.43
2019-04-30T02:54:24.706Z,11.38
2019-04-30T02:59:23.078Z,11.45
2019-04-30T03:01:51.839Z,15.13
2019-04-30T03:04:20.510Z,13.40
2019-04-30T03:06:50.224Z,11.93
2019-04-30T03:09:20.127Z,16.12
2019-04-30T03:11:50.115Z,12.78
2019-04-30T03:14:20.055Z,15.48
2019-04-30T03:16:53.568Z,14.10
2019-04-30T03:19:23.889Z,12.95
2019-04-30T03:21:54.235Z,14.13
2019-04-30T03:24:24.412Z,14.18
2019-04-30T03:26:53.214Z,14.75
2019-04-30T03:29:24.046Z,12.75
2019-04-30T03:31:52.899Z,14.73
2019-04-30T03:34:25.633Z,14.38
2019-04-30T03:36:52.141Z,12.82
2019-04-30T03:39:20.807Z,12.18
2019-04-30T03:41:50.198Z,13.30
2019-04-30T03:44:25.593Z,10.88
2019-04-30T03:46:51.225Z,13.00
2019-04-30T03:49:20.390Z,13.35
2019-04-30T03:51:49.842Z,11.25
2019-04-30T03:54:19.510Z,10.28
2019-04-30T03:56:50.243Z,10.78
2019-04-30T03:59:20.665Z,9.28
2019-04-30T04:01:51.047Z,10.88
2019-04-30T04:04:21.340Z,8.15
2019-04-30T04:06:51.653Z,10.30
2019-04-30T04:09:22.474Z,10.15
2019-04-30T04:11:59.847Z,10.23
2019-04-30T04:14:29.628Z,11.10
2019-04-30T04:17:00.065Z,15.55
2019-04-30T04:19:29.224Z,11.38
2019-04-30T04:22:00.450Z,14.28
2019-04-30T04:24:33.559Z,14.90
2019-04-30T04:27:02.391Z,14.45
2019-04-30T04:29:32.522Z,12.90
2019-04-30T04:32:01.188Z,13.25
2019-04-30T04:34:30.351Z,12.60
2019-04-30T04:37:00.156Z,11.90
2019-04-30T04:39:29.747Z,12.78
2019-04-30T04:42:00.020Z,16.07
2019-04-30T04:44:29.474Z,13.05
2019-04-30T04:47:00.168Z,12.93
2019-04-30T04:49:30.556Z,13.45
2019-04-30T04:51:59.497Z,13.88
2019-04-30T04:54:30.045Z,13.53
2019-04-30T04:57:14.015Z,12.23
2019-04-30T04:59:30.889Z,12.20
2019-04-30T05:02:01.203Z,10.63
2019-04-30T05:04:29.974Z,12.20
2019-04-30T05:07:00.063Z,15.03
2019-04-30T05:09:29.013Z,12.58
2019-04-30T05:11:58.649Z,14.18
2019-04-30T05:14:28.820Z,13.65
2019-04-30T05:16:58.931Z,14.98
2019-04-30T05:19:28.604Z,12.90
2019-04-30T05:21:59.602Z,21.10
2019-04-30T05:24:29.480Z,20.60
2019-04-30T05:26:58.673Z,30.80
2019-04-30T05:29:28.961Z,36.65
2019-04-30T05:31:58.564Z,35.55
2019-04-30T05:34:28.829Z,35.38
2019-04-30T05:37:01.002Z,40.38
2019-04-30T05:39:29.806Z,40.45
2019-04-30T05:42:01.498Z,43.38
2019-04-30T05:44:30.215Z,36.38
2019-04-30T05:46:59.317Z,33.88
2019-04-30T05:49:28.767Z,37.98
2019-04-30T05:51:59.326Z,36.00
2019-04-30T05:54:29.222Z,35.85
2019-04-30T05:56:59.403Z,32.05
2019-04-30T05:59:31.082Z,32.15
2019-04-30T06:01:59.799Z,32.20
2019-04-30T06:04:29.393Z,34.18
2019-04-30T06:06:58.715Z,34.03
2019-04-30T06:09:48.532Z,31.40
2019-04-30T06:12:28.429Z,37.67
2019-04-30T06:15:11.747Z,32.05
2019-04-30T06:18:00.067Z,34.15
2019-04-30T06:20:21.048Z,33.02
2019-04-30T06:22:52.285Z,30.62
2019-04-30T06:25:31.115Z,29.67
2019-04-30T06:27:52.470Z,30.20
2019-04-30T06:30:21.265Z,33.40
2019-04-30T06:32:50.017Z,29.10
2019-04-30T06:35:19.458Z,28.30
2019-04-30T06:37:48.895Z,27.98
2019-04-30T06:40:19.626Z,29.25
2019-04-30T06:42:50.302Z,29.63
2019-04-30T06:45:19.310Z,28.80
2019-04-30T06:47:49.109Z,27.70
2019-04-30T06:50:19.370Z,28.60
2019-04-30T06:52:56.270Z,27.30
2019-04-30T07:25:39.136Z,26.60
2019-04-30T07:28:08.972Z,23.15
2019-04-30T07:30:39.563Z,24.70
2019-04-30T07:33:09.507Z,23.32
2019-04-30T07:35:39.907Z,24.40
2019-04-30T07:38:09.294Z,23.45
2019-04-30T07:40:39.020Z,22.27
2019-04-30T07:43:09.968Z,23.38
2019-04-30T07:45:39.749Z,23.02
2019-04-30T07:48:09.529Z,22.15
2019-04-30T07:50:41.041Z,22.25
2019-04-30T07:53:11.283Z,22.50
2019-04-30T07:55:41.247Z,25.02
2019-04-30T07:58:09.992Z,21.45
2019-04-30T08:00:40.228Z,23.02
2019-04-30T08:03:11.204Z,23.02
2019-04-30T08:05:44.933Z,23.65
2019-04-30T08:08:20.978Z,21.02
2019-04-30T08:10:44.100Z,22.73
2019-04-30T08:13:15.199Z,20.65
2019-04-30T08:15:43.280Z,22.30
2019-04-30T08:18:13.034Z,23.30
2019-04-30T08:20:41.696Z,20.92
2019-04-30T08:23:20.300Z,23.73
2019-04-30T08:25:40.946Z,21.30
2019-04-30T08:28:09.701Z,20.88
2019-04-30T08:30:39.124Z,24.02
2019-04-30T08:33:09.473Z,21.75
2019-04-30T08:35:39.776Z,23.10
2019-04-30T08:38:10.727Z,23.92
2019-04-30T08:40:52.814Z,25.85
2019-04-30T08:43:10.041Z,21.80
2019-04-30T08:45:38.725Z,21.02
2019-04-30T08:48:09.115Z,21.75
2019-04-30T08:50:39.291Z,20.17
2019-04-30T08:53:11.459Z,24.80
2019-04-30T08:55:40.520Z,20.32
2019-04-30T08:58:14.797Z,22.05
2019-04-30T09:00:40.047Z,21.90
2019-04-30T09:03:09.341Z,20.32
2019-04-30T09:05:41.289Z,22.48
2019-04-30T09:08:11.645Z,19.92
2019-04-30T09:10:41.803Z,22.58
2019-04-30T09:13:10.477Z,20.77
2019-04-30T09:15:40.092Z,19.23
2019-04-30T09:18:12.429Z,19.40
2019-04-30T09:20:40.895Z,19.48
2019-04-30T09:23:11.246Z,20.90
2019-04-30T09:25:40.036Z,18.10
2019-04-30T09:28:10.801Z,19.90
2019-04-30T09:30:39.464Z,19.73
2019-04-30T09:33:10.923Z,20.17
2019-04-30T09:35:39.510Z,20.85
2019-04-30T09:38:09.205Z,19.52
2019-04-30T09:40:41.635Z,18.48
2019-04-30T09:43:09.961Z,19.75
2019-04-30T09:45:38.705Z,17.10
2019-04-30T09:48:09.427Z,18.82
2019-04-30T09:50:39.105Z,17.45
2019-04-30T09:53:09.901Z,19.07
2019-04-30T09:55:40.447Z,18.15
2019-04-30T09:58:17.211Z,20.52
2019-04-30T10:00:39.579Z,18.90
2019-04-30T10:03:10.388Z,19.42
2019-04-30T10:05:39.139Z,20.37
2019-04-30T10:08:07.934Z,18.35
2019-04-30T10:10:38.837Z,19.92
2019-04-30T10:13:10.006Z,17.95
2019-04-30T10:15:40.330Z,17.57
2019-04-30T10:18:09.909Z,16.73
2019-04-30T10:20:47.053Z,21.30
2019-04-30T10:23:15.759Z,17.87
2019-04-30T10:25:44.420Z,16.25
2019-04-30T10:28:13.100Z,18.75
2019-04-30T10:30:41.866Z,19.77
2019-04-30T10:33:10.580Z,17.73
2019-04-30T10:35:39.352Z,18.30
2019-04-30T10:38:09.830Z,19.90
2019-04-30T10:40:39.115Z,19.48
2019-04-30T10:43:08.915Z,18.30
2019-04-30T10:45:39.019Z,19.37
2019-04-30T10:48:07.736Z,19.60
2019-04-30T10:50:40.963Z,17.45
2019-04-30T10:53:12.254Z,21.45
2019-04-30T10:55:40.335Z,17.75
2019-04-30T10:58:09.009Z,19.77
2019-04-30T11:00:39.889Z,18.20
2019-04-30T11:03:19.090Z,18.67
2019-04-30T11:05:41.362Z,19.15
2019-04-30T11:08:11.559Z,20.80
2019-04-30T11:10:40.282Z,18.98
2019-04-30T11:13:08.957Z,20.00
2019-04-30T11:15:39.275Z,18.27
2019-04-30T11:18:08.632Z,19.25
2019-04-30T11:20:39.524Z,19.37
2019-04-30T11:23:14.177Z,18.60
2019-04-30T11:25:40.655Z,17.90
2019-04-30T11:28:09.264Z,18.57
2019-04-30T11:30:39.238Z,20.12
2019-04-30T11:33:12.875Z,21.50
2019-04-30T11:35:41.953Z,17.07
2019-04-30T11:38:10.602Z,20.57
2019-04-30T11:40:39.918Z,19.87
2019-04-30T11:43:10.309Z,18.23
2019-04-30T11:45:53.919Z,21.27
2019-04-30T11:48:22.580Z,21.77
2019-04-30T11:50:54.225Z,20.17
2019-04-30T11:53:27.879Z,17.90
2019-04-30T11:55:53.420Z,18.20
2019-04-30T11:58:22.133Z,21.40
2019-04-30T12:00:50.903Z,19.48
2019-04-30T12:03:25.489Z,19.07
2019-04-30T12:05:58.915Z,20.12
2019-04-30T12:08:29.453Z,21.33
2019-04-30T12:11:09.761Z,19.05
2019-04-30T12:13:38.445Z,20.52
2019-04-30T12:16:08.719Z,17.57
2019-04-30T12:18:38.841Z,21.12
2019-04-30T12:21:07.595Z,16.87
2019-04-30T12:23:36.252Z,21.05
2019-04-30T12:26:04.965Z,19.90
2019-04-30T12:28:33.645Z,18.73
2019-04-30T12:31:02.335Z,17.15
2019-04-30T12:33:30.999Z,18.32
2019-04-30T12:35:59.737Z,18.50
2019-04-30T12:38:29.880Z,18.07
2019-04-30T12:40:58.782Z,17.75
2019-04-30T12:43:27.477Z,16.27
2019-04-30T12:46:03.482Z,18.17
2019-04-30T12:48:31.192Z,16.35
2019-04-30T12:51:17.855Z,21.27
2019-04-30T12:53:48.195Z,16.50
2019-04-30T12:56:27.143Z,17.00
2019-04-30T12:58:56.684Z,17.70
2019-04-30T13:01:25.422Z,17.73
2019-04-30T13:03:58.674Z,18.05
2019-04-30T13:06:25.132Z,18.77
2019-04-30T13:08:54.537Z,19.85
2019-04-30T13:11:24.208Z,20.17
2019-04-30T13:13:56.767Z,18.80
2019-04-30T13:16:26.512Z,20.35
2019-04-30T13:18:55.265Z,17.92
2019-04-30T13:21:25.981Z,18.70
2019-04-30T13:23:54.640Z,18.85
2019-04-30T13:26:23.314Z,19.30
2019-04-30T13:29:05.545Z,18.12
2019-04-30T13:31:34.293Z,18.48
2019-04-30T13:34:23.070Z,20.25
2019-04-30T13:36:51.861Z,19.85
2019-04-30T13:39:27.007Z,19.62
2019-04-30T13:42:01.655Z,18.17
2019-04-30T13:47:10.977Z,20.10
2019-04-30T13:49:39.740Z,24.85
2019-04-30T13:52:10.281Z,25.43
2019-04-30T13:54:38.991Z,24.72
2019-04-30T13:57:09.105Z,25.92
2019-04-30T13:59:38.060Z,27.73
2019-04-30T14:02:08.690Z,25.60
2019-04-30T14:04:47.851Z,27.45
2019-04-30T14:07:27.545Z,28.25
2019-04-30T14:09:56.243Z,27.62
2019-04-30T14:12:25.305Z,28.67
2019-04-30T14:14:55.656Z,30.02
2019-04-30T14:17:24.520Z,28.73
2019-04-30T14:19:53.788Z,28.73
2019-04-30T14:22:22.480Z,28.83
2019-04-30T14:24:52.602Z,30.10
2019-04-30T14:27:21.473Z,30.40
2019-04-30T14:29:52.637Z,31.07
2019-04-30T14:32:21.418Z,31.02
2019-04-30T14:34:50.705Z,29.40
2019-04-30T14:37:20.145Z,30.43
2019-04-30T14:39:49.444Z,29.90
2019-04-30T14:42:20.881Z,32.35
2019-04-30T14:44:52.087Z,33.20
2019-04-30T14:47:26.376Z,32.00
2019-04-30T14:50:02.644Z,32.03
2019-04-30T14:52:30.845Z,30.20
2019-04-30T14:55:18.745Z,32.98
2019-04-30T15:00:59.239Z,31.68
2019-04-30T15:03:31.778Z,33.00
2019-04-30T15:06:00.456Z,35.03
2019-04-30T15:08:29.384Z,31.68
2019-04-30T15:10:58.100Z,32.15
2019-04-30T15:13:29.372Z,30.97
2019-04-30T15:16:03.632Z,33.67
2019-04-30T15:18:29.014Z,34.60
2019-04-30T15:20:59.458Z,34.08
2019-04-30T15:23:37.340Z,36.03
2019-04-30T15:26:21.612Z,31.42
2019-04-30T15:28:41.481Z,32.28
2019-04-30T15:31:10.241Z,31.35
2019-04-30T15:33:40.786Z,33.53
2019-04-30T15:36:11.133Z,32.73
2019-04-30T15:38:59.082Z,35.43
2019-04-30T15:41:28.936Z,30.25
2019-04-30T15:43:57.630Z,31.37
2019-04-30T15:46:26.522Z,33.70
2019-04-30T15:48:55.195Z,32.23
2019-04-30T15:51:23.880Z,35.08
2019-04-30T15:53:52.633Z,30.45
2019-04-30T15:56:34.125Z,34.35
2019-04-30T15:59:12.169Z,33.23
2019-04-30T16:01:46.371Z,33.60
2019-04-30T16:04:18.502Z,30.50
2019-04-30T16:06:49.120Z,30.88
2019-04-30T16:09:25.603Z,32.35
2019-04-30T16:12:00.606Z,34.25
2019-04-30T16:14:33.931Z,31.65
2019-04-30T16:17:06.562Z,29.23
2019-04-30T16:19:35.506Z,31.20
2019-04-30T16:22:04.792Z,32.73
2019-04-30T16:24:33.550Z,34.25
2019-04-30T16:27:02.247Z,32.17
2019-04-30T16:29:30.989Z,30.70
2019-04-30T16:31:59.691Z,32.65
2019-04-30T16:34:30.404Z,30.72
2019-04-30T16:36:59.328Z,29.95
2019-04-30T16:39:28.784Z,31.33
2019-04-30T16:41:59.138Z,34.15
2019-04-30T16:44:31.011Z,33.05
2019-04-30T16:47:12.702Z,34.25
2019-04-30T16:49:30.823Z,34.53
2019-04-30T16:52:01.494Z,36.53
2019-04-30T16:54:30.500Z,34.80
2019-04-30T16:57:04.154Z,35.38
2019-04-30T16:59:42.707Z,31.97
2019-04-30T17:02:12.954Z,40.58
2019-04-30T17:04:49.980Z,34.30
2019-04-30T17:07:32.166Z,35.25
2019-04-30T17:10:18.988Z,33.70
2019-04-30T17:13:01.299Z,31.90
2019-04-30T17:15:34.597Z,33.88
2019-04-30T17:18:03.347Z,30.30
2019-04-30T17:20:32.120Z,34.50
2019-04-30T17:23:00.891Z,34.78
2019-04-30T17:25:30.866Z,30.75
2019-04-30T17:28:01.501Z,30.32
2019-04-30T17:30:30.416Z,32.53
2019-04-30T17:32:59.737Z,30.30
2019-04-30T17:35:28.964Z,32.90
2019-04-30T17:37:57.642Z,36.15
2019-04-30T17:40:29.155Z,32.30
2019-04-30T17:42:57.927Z,30.70
2019-04-30T17:45:26.650Z,31.82
2019-04-30T17:47:55.931Z,31.07
2019-04-30T17:50:24.624Z,31.68
2019-04-30T17:52:53.428Z,33.15
2019-04-30T17:55:22.220Z,34.13
2019-04-30T17:57:50.905Z,33.73
2019-04-30T18:00:22.324Z,35.95
2019-04-30T18:02:50.313Z,33.08
2019-04-30T18:05:19.611Z,37.95
2019-04-30T18:07:49.805Z,34.03
2019-04-30T18:10:20.468Z,34.50
2019-04-30T18:12:49.154Z,37.45
2019-04-30T18:15:19.520Z,37.95
2019-04-30T18:17:49.857Z,38.85
2019-04-30T18:20:26.209Z,42.33
2019-04-30T18:22:56.526Z,43.52
2019-04-30T18:25:36.128Z,43.20
2019-04-30T18:28:05.356Z,41.50
2019-04-30T18:30:39.131Z,42.90
2019-04-30T18:33:09.867Z,38.45
2019-04-30T18:35:38.882Z,40.80
2019-04-30T18:38:11.368Z,41.00
2019-04-30T18:40:42.053Z,36.48
2019-04-30T18:43:12.854Z,39.35
2019-04-30T18:45:43.088Z,43.42
2019-04-30T18:48:12.137Z,37.15
2019-04-30T18:50:40.836Z,42.55
2019-04-30T18:53:11.634Z,39.75
2019-04-30T18:55:40.332Z,41.40
2019-04-30T18:58:10.440Z,40.55
2019-04-30T19:00:40.804Z,45.63
2019-04-30T19:03:10.057Z,44.98
2019-04-30T19:05:40.302Z,40.67
2019-04-30T19:08:25.708Z,39.88
2019-04-30T19:10:56.042Z,43.60
2019-04-30T19:13:38.291Z,43.28
2019-04-30T19:16:24.716Z,40.05
2019-04-30T19:18:56.276Z,36.33
2019-04-30T19:21:25.480Z,42.85
2019-04-30T19:23:54.483Z,39.85
2019-04-30T19:26:23.242Z,41.73
2019-04-30T19:28:53.492Z,37.30
2019-04-30T19:31:24.302Z,42.00
2019-04-30T19:33:54.366Z,41.60
2019-04-30T19:36:34.983Z,43.20
2019-04-30T19:38:53.571Z,40.63
2019-04-30T19:41:28.674Z,44.30
2019-04-30T19:43:57.480Z,44.15
2019-04-30T19:46:26.273Z,48.08
2019-04-30T19:48:55.049Z,44.93
2019-04-30T19:51:23.755Z,42.17
2019-04-30T19:53:52.977Z,42.88
2019-04-30T19:56:21.938Z,45.78
2019-04-30T19:59:02.062Z,44.00
2019-04-30T20:01:23.221Z,47.90
2019-04-30T20:03:51.998Z,50.17
2019-04-30T20:06:22.157Z,44.80
2019-04-30T20:08:50.947Z,56.00
2019-04-30T20:11:19.695Z,49.73
2019-04-30T20:13:49.023Z,53.00
2019-04-30T20:16:19.738Z,48.05
2019-04-30T20:18:51.244Z,49.75
2019-04-30T20:21:28.339Z,49.88
2019-04-30T20:23:52.071Z,48.28
2019-04-30T20:26:20.777Z,46.08
2019-04-30T20:28:50.565Z,49.40
2019-04-30T20:31:19.315Z,49.13
2019-04-30T20:33:48.966Z,51.00
2019-04-30T20:36:19.036Z,49.20
2019-04-30T20:38:55.429Z,47.20
2019-04-30T20:41:25.748Z,48.28
2019-04-30T20:43:54.857Z,47.15
2019-04-30T20:46:34.244Z,44.58
2019-04-30T20:48:55.479Z,48.85
2019-04-30T20:51:24.158Z,45.55
2019-04-30T20:53:52.867Z,44.70
2019-04-30T20:56:22.648Z,49.10
2019-04-30T20:58:57.882Z,48.58
2019-04-30T21:01:24.845Z,47.27
2019-04-30T21:03:53.615Z,50.25
2019-04-30T21:06:22.317Z,47.48
2019-04-30T21:08:51.093Z,51.92
2019-04-30T21:11:19.823Z,50.78
2019-04-30T21:13:49.103Z,49.88
2019-04-30T21:16:17.968Z,53.45
2019-04-30T21:18:46.655Z,52.75
2019-04-30T21:21:15.347Z,51.10
2019-04-30T21:23:44.028Z,47.65
2019-04-30T21:26:15.429Z,52.67
2019-04-30T21:28:44.119Z,51.00
2019-04-30T21:31:30.717Z,53.15
2019-04-30T21:34:19.481Z,56.02
2019-04-30T21:36:59.786Z,53.45
2019-04-30T21:39:28.505Z,57.03
2019-04-30T21:41:59.339Z,59.70
2019-04-30T21:44:27.684Z,59.60
2019-04-30T21:46:56.959Z,59.03
2019-04-30T21:49:25.708Z,60.75
2019-04-30T21:51:55.122Z,63.42
2019-04-30T21:54:23.896Z,63.68
2019-04-30T21:56:52.594Z,67.40
2019-04-30T21:59:24.633Z,67.85
2019-04-30T22:01:53.619Z,69.65
2019-04-30T22:04:23.846Z,67.60
2019-04-30T22:06:52.684Z,69.15
2019-04-30T22:09:21.735Z,77.08
2019-04-30T22:11:50.394Z,78.57
2019-04-30T22:14:19.218Z,64.10
2019-04-30T22:16:49.435Z,71.57
2019-04-30T22:19:18.266Z,73.02
2019-04-30T22:21:47.015Z,76.00
2019-04-30T22:24:20.007Z,70.37
2019-04-30T22:26:48.734Z,75.47
2019-04-30T22:29:19.122Z,74.97
2019-04-30T22:31:49.473Z,78.70
2019-04-30T22:34:18.324Z,74.92
2019-04-30T22:36:48.815Z,77.65
2019-04-30T22:39:19.947Z,75.87
2019-04-30T22:41:48.916Z,73.57
2019-04-30T22:44:17.822Z,71.50
2019-04-30T22:46:46.507Z,71.02
2019-04-30T22:49:16.645Z,73.47
2019-04-30T22:51:45.415Z,73.47
2019-04-30T22:54:14.078Z,67.82
2019-04-30T22:56:42.879Z,69.30
2019-04-30T22:59:11.556Z,63.73
2019-04-30T23:01:58.082Z,67.55
2019-04-30T23:04:30.600Z,70.30
2019-04-30T23:06:59.257Z,70.67
2019-04-30T23:09:27.973Z,64.97
2019-04-30T23:11:56.724Z,66.35
2019-04-30T23:14:25.438Z,63.13
2019-04-30T23:16:55.534Z,62.00
2019-04-30T23:19:24.329Z,64.25
2019-04-30T23:21:53.275Z,59.10
2019-04-30T23:24:21.981Z,58.35
2019-04-30T23:26:50.674Z,57.05
2019-04-30T23:29:19.450Z,61.13
2019-04-30T23:31:48.122Z,62.03
2019-04-30T23:34:18.018Z,60.03
2019-04-30T23:36:47.223Z,62.70
2019-04-30T23:39:15.997Z,59.23
2019-04-30T23:41:44.706Z,55.08
2019-04-30T23:44:13.478Z,54.88
2019-04-30T23:46:43.279Z,54.75
2019-04-30T23:49:11.915Z,49.50
2019-04-30T23:51:42.172Z,51.05
2019-04-30T23:54:10.855Z,54.88
2019-04-30T23:56:42.451Z,50.10
2019-04-30T23:59:11.225Z,50.90
